SARF/FMA METAR and TAF weather

Enter ICAO airport designator
Station Type Date Time Source
SARF METAR 2020/03/28 15:00 UTC NOAA

SARF 281500Z 14004KT 9999 SCT006 OVC100 24/21 Q1012


Station Type Date Time Source
SARF Decoded METAR 2020/03/28 15:00 UTC NOAA

Formosa Aerodrome, Argentina (SARF) 26-12S 058-14W 60M
Mar 28, 2020 - 11:00 AM EDT / 2020.03.28 1500 UTC
Wind: from the SE (140 degrees) at 5 MPH (4 KT):0
Visibility: greater than 7 mile(s):0
Sky conditions: overcast
Temperature: 75 F (24 C)
Dew Point: 69 F (21 C)
Relative Humidity: 83%
Pressure (altimeter): 29.88 in. Hg (1012 hPa)
ob: SARF 281500Z 14004KT 9999 SCT006 OVC100 24/21 Q1012
cycle: 15

Station Type Date Time Source
SARF TAF 2020/03/28 12:27 UTC NOAA

TAF SARF 281100Z 2812/2912 18005KT 8000 BKN050 TX31/2818Z TN23/2909Z
TEMPO 2814/2824 05005KT 5000 -RA FEW040 OVC055

Example: see airport list